createdAt,value
2018-08-04T00:00:44.218Z,55.19
2018-08-04T00:03:14.336Z,55.61
2018-08-04T00:05:44.520Z,56.37
2018-08-04T00:08:14.696Z,56.08
2018-08-04T00:10:44.882Z,55.81
2018-08-04T00:13:15.036Z,56.11
2018-08-04T00:15:45.190Z,55.98
2018-08-04T00:18:15.358Z,55.91
2018-08-04T00:20:45.632Z,56.54
2018-08-04T00:23:15.753Z,56.36
2018-08-04T00:25:45.480Z,56.58
2018-08-04T00:28:15.630Z,56.54
2018-08-04T00:30:45.773Z,56.68
2018-08-04T00:33:15.889Z,56.89
2018-08-04T00:35:46.023Z,56.79
2018-08-04T00:38:16.101Z,57.27
2018-08-04T00:40:46.256Z,56.42
2018-08-04T00:43:16.366Z,57.24
2018-08-04T00:45:46.509Z,57.47
2018-08-04T00:48:16.628Z,57.10
2018-08-04T00:50:47.547Z,57.33
2018-08-04T00:53:17.695Z,57.09
2018-08-04T00:55:47.836Z,57.74
2018-08-04T00:58:17.963Z,57.45
2018-08-04T01:00:48.104Z,58.39
2018-08-04T01:03:18.305Z,58.53
2018-08-04T01:05:48.445Z,58.42
2018-08-04T01:08:18.550Z,58.74
2018-08-04T01:10:49.383Z,58.62
2018-08-04T01:13:19.494Z,58.20
2018-08-04T01:15:49.647Z,58.25
2018-08-04T01:18:19.844Z,58.46
2018-08-04T01:20:49.949Z,59.33
2018-08-04T01:23:20.105Z,58.99
2018-08-04T01:25:50.558Z,59.06
2018-08-04T01:28:20.241Z,59.16
2018-08-04T01:30:50.403Z,59.24
2018-08-04T01:33:20.089Z,59.24
2018-08-04T01:35:50.228Z,59.23
2018-08-04T01:38:20.387Z,59.54
2018-08-04T01:40:51.153Z,59.45
2018-08-04T01:43:21.357Z,59.21
2018-08-04T01:45:51.519Z,59.52
2018-08-04T01:48:21.659Z,59.79
2018-08-04T01:50:52.896Z,59.75
2018-08-04T01:53:23.023Z,59.35
2018-08-04T01:55:53.140Z,59.30
2018-08-04T01:58:23.457Z,59.47
2018-08-04T02:00:53.536Z,59.91
2018-08-04T02:03:23.201Z,59.74
2018-08-04T02:05:53.331Z,60.02
2018-08-04T02:08:23.492Z,59.83
2018-08-04T02:10:53.642Z,59.95
2018-08-04T02:13:23.705Z,59.79
2018-08-04T02:15:53.832Z,59.38
2018-08-04T02:18:24.056Z,59.43
2018-08-04T02:20:54.199Z,59.89
2018-08-04T02:23:23.879Z,59.64
2018-08-04T02:25:54.005Z,60.33
2018-08-04T02:28:24.185Z,60.18
2018-08-04T02:30:54.394Z,60.51
2018-08-04T02:33:24.337Z,60.29
2018-08-04T02:35:54.667Z,59.86
2018-08-04T02:38:24.749Z,60.02
2018-08-04T02:40:55.085Z,59.89
2018-08-04T02:43:24.917Z,60.10
2018-08-04T02:45:55.315Z,60.16
2018-08-04T02:48:26.487Z,59.98
2018-08-04T02:50:56.786Z,60.26
2018-08-04T02:53:27.749Z,59.59
2018-08-04T02:55:57.861Z,59.86
2018-08-04T02:58:27.601Z,59.48
2018-08-04T03:00:57.651Z,60.29
2018-08-04T03:03:27.772Z,60.13
2018-08-04T03:05:57.851Z,60.65
2018-08-04T03:08:27.691Z,59.80
2018-08-04T03:10:57.916Z,60.46
2018-08-04T03:13:28.025Z,60.36
2018-08-04T03:15:57.718Z,59.76
2018-08-04T03:18:27.848Z,60.33
2018-08-04T03:20:57.982Z,60.08
2018-08-04T03:23:27.671Z,60.06
2018-08-04T03:25:57.737Z,60.48
2018-08-04T03:28:27.842Z,60.37
2018-08-04T03:30:57.936Z,60.26
2018-08-04T03:33:28.092Z,60.05
2018-08-04T03:35:57.770Z,61.12
2018-08-04T03:38:27.890Z,61.33
2018-08-04T03:40:58.080Z,61.42
2018-08-04T03:43:28.244Z,61.23
2018-08-04T03:45:58.415Z,60.66
2018-08-04T03:48:28.550Z,61.61
2018-08-04T03:50:58.702Z,62.05
2018-08-04T03:53:28.846Z,61.67
2018-08-04T03:55:59.261Z,61.71
2018-08-04T03:58:29.475Z,61.44
2018-08-04T04:00:59.571Z,62.00
2018-08-04T04:03:29.696Z,62.11
2018-08-04T04:05:59.793Z,61.79
2018-08-04T04:08:29.503Z,62.45
2018-08-04T04:10:59.584Z,62.17
2018-08-04T04:13:29.737Z,62.18
2018-08-04T04:15:59.874Z,62.22
2018-08-04T04:18:30.050Z,62.54
2018-08-04T04:21:00.165Z,62.58
2018-08-04T04:23:30.528Z,62.63
2018-08-04T04:26:00.693Z,62.53
2018-08-04T04:28:30.879Z,62.40
2018-08-04T04:31:01.004Z,62.90
2018-08-04T04:33:31.155Z,62.70
2018-08-04T04:36:01.230Z,62.91
2018-08-04T04:38:31.340Z,63.04
2018-08-04T04:41:01.431Z,62.82
2018-08-04T04:43:31.633Z,62.46
2018-08-04T04:46:01.326Z,62.42
2018-08-04T04:48:31.508Z,61.73
2018-08-04T04:51:01.592Z,61.24
2018-08-04T04:53:31.914Z,61.07
2018-08-04T04:56:01.979Z,60.74
2018-08-04T04:58:32.152Z,60.10
2018-08-04T05:01:02.278Z,59.84
2018-08-04T05:03:32.389Z,59.54
2018-08-04T05:06:02.733Z,59.29
2018-08-04T05:08:32.844Z,59.00
2018-08-04T05:11:02.854Z,58.50
2018-08-04T05:13:32.919Z,57.55
2018-08-04T05:16:02.982Z,57.58
2018-08-04T05:18:33.313Z,57.36
2018-08-04T05:21:03.349Z,57.45
2018-08-04T05:23:33.440Z,57.56
2018-08-04T05:26:03.519Z,57.51
2018-08-04T05:28:33.616Z,57.41
2018-08-04T05:31:03.736Z,57.22
2018-08-04T05:33:33.834Z,57.31
2018-08-04T05:36:03.911Z,57.55
2018-08-04T05:38:34.014Z,57.00
2018-08-04T05:41:04.440Z,56.96
2018-08-04T05:43:34.628Z,56.94
2018-08-04T05:46:05.302Z,57.09
2018-08-04T05:48:35.399Z,56.51
2018-08-04T05:51:05.574Z,56.59
2018-08-04T05:53:35.694Z,56.60
2018-08-04T05:56:05.886Z,56.17
2018-08-04T05:58:36.030Z,55.93
2018-08-04T06:01:06.169Z,55.41
2018-08-04T06:03:36.302Z,54.97
2018-08-04T06:06:06.526Z,54.99
2018-08-04T06:08:36.750Z,54.22
2018-08-04T06:11:07.701Z,52.62
2018-08-04T06:13:37.742Z,54.38
2018-08-04T06:16:07.947Z,56.08
2018-08-04T06:18:37.709Z,54.11
2018-08-04T06:21:07.878Z,54.18
2018-08-04T06:23:38.035Z,52.91
2018-08-04T06:26:09.047Z,52.41
2018-08-04T06:28:38.735Z,52.16
2018-08-04T06:31:08.866Z,51.71
2018-08-04T06:33:38.972Z,51.73
2018-08-04T06:36:09.743Z,50.75
2018-08-04T06:38:39.846Z,50.58
2018-08-04T06:41:10.798Z,47.29
2018-08-04T06:43:41.576Z,46.07
2018-08-04T06:46:11.685Z,46.52
2018-08-04T06:48:41.756Z,47.10
2018-08-04T06:51:11.915Z,46.84
2018-08-04T06:53:41.571Z,46.89
2018-08-04T06:56:11.700Z,48.74
2018-08-04T06:58:41.765Z,48.44
2018-08-04T07:01:11.942Z,48.01
2018-08-04T07:03:42.056Z,45.70
2018-08-04T07:06:12.142Z,46.50
2018-08-04T07:08:42.327Z,46.59
2018-08-04T07:11:12.469Z,46.27
2018-08-04T07:13:42.618Z,46.21
2018-08-04T07:16:12.903Z,45.30
2018-08-04T07:18:43.021Z,45.01
2018-08-04T07:21:13.210Z,45.43
2018-08-04T07:23:43.273Z,45.41
2018-08-04T07:26:13.823Z,46.90
2018-08-04T07:28:46.142Z,45.86
2018-08-04T07:31:16.237Z,44.63
2018-08-04T07:33:46.308Z,43.36
2018-08-04T07:36:16.467Z,43.99
2018-08-04T07:38:46.628Z,43.95
2018-08-04T07:41:16.344Z,42.41
2018-08-04T07:43:46.590Z,44.21
2018-08-04T07:46:16.681Z,41.08
2018-08-04T07:48:46.285Z,41.85
2018-08-04T07:51:16.500Z,41.16
2018-08-04T07:53:46.534Z,40.42
2018-08-04T07:56:16.662Z,39.37
2018-08-04T07:58:46.311Z,38.35
2018-08-04T08:01:16.424Z,38.38
2018-08-04T08:03:46.478Z,36.82
2018-08-04T08:06:16.564Z,39.07
2018-08-04T08:08:46.670Z,38.77
2018-08-04T08:11:16.843Z,39.20
2018-08-04T08:13:46.966Z,37.97
2018-08-04T08:16:17.048Z,39.67
2018-08-04T08:18:47.202Z,37.88
2018-08-04T08:21:17.461Z,38.88
2018-08-04T08:23:47.495Z,39.11
2018-08-04T08:26:17.824Z,40.20
2018-08-04T08:28:47.894Z,39.27
2018-08-04T08:31:18.050Z,38.66
2018-08-04T08:33:48.147Z,37.29
2018-08-04T08:36:18.358Z,38.28
2018-08-04T08:38:48.429Z,38.54
2018-08-04T08:41:18.538Z,36.73
2018-08-04T08:43:48.610Z,37.17
2018-08-04T08:46:18.419Z,35.41
2018-08-04T08:48:48.055Z,36.69
2018-08-04T08:51:18.107Z,37.76
2018-08-04T08:53:48.172Z,37.55
2018-08-04T08:56:18.196Z,37.65
2018-08-04T08:58:48.260Z,36.82
2018-08-04T09:01:18.307Z,38.33
2018-08-04T09:03:48.359Z,35.57
2018-08-04T09:06:19.129Z,36.37
2018-08-04T09:08:49.547Z,35.24
2018-08-04T09:11:19.624Z,35.79
2018-08-04T09:13:49.787Z,35.02
2018-08-04T09:16:19.904Z,35.72
2018-08-04T09:18:49.572Z,34.94
2018-08-04T09:21:19.596Z,35.57
2018-08-04T09:23:49.661Z,35.09
2018-08-04T09:26:19.759Z,35.71
2018-08-04T09:28:49.883Z,34.55
2018-08-04T09:31:19.946Z,35.08
2018-08-04T09:33:50.046Z,34.06
2018-08-04T09:36:20.152Z,32.53
2018-08-04T09:38:50.164Z,33.51
2018-08-04T09:41:20.206Z,35.60
2018-08-04T09:43:50.273Z,32.59
2018-08-04T09:46:20.351Z,33.24
2018-08-04T09:48:50.060Z,33.48
2018-08-04T09:51:20.119Z,32.51
2018-08-04T09:53:50.258Z,33.71
2018-08-04T09:56:20.379Z,34.62
2018-08-04T09:58:50.524Z,34.37
2018-08-04T10:01:25.661Z,31.10
2018-08-04T10:03:56.009Z,30.10
2018-08-04T10:06:26.083Z,31.35
2018-08-04T10:08:56.103Z,33.43
2018-08-04T10:11:26.543Z,32.41
2018-08-04T10:13:56.659Z,31.14
2018-08-04T10:16:26.726Z,31.53
2018-08-04T10:18:57.255Z,30.24
2018-08-04T10:21:27.270Z,29.08
2018-08-04T10:23:57.344Z,30.43
2018-08-04T10:26:27.392Z,29.57
2018-08-04T10:28:57.421Z,28.15
2018-08-04T10:31:27.463Z,28.87
2018-08-04T10:33:57.588Z,30.66
2018-08-04T10:36:27.650Z,30.26
2018-08-04T10:38:57.715Z,29.73
2018-08-04T10:41:27.754Z,28.10
2018-08-04T10:43:58.471Z,29.93
2018-08-04T10:46:28.559Z,32.07
2018-08-04T10:48:58.606Z,30.83
2018-08-04T10:51:28.623Z,29.82
2018-08-04T10:53:59.231Z,27.68
2018-08-04T10:56:29.346Z,25.54
2018-08-04T10:58:59.413Z,27.04
2018-08-04T11:01:30.162Z,25.70
2018-08-04T11:04:00.203Z,26.30
2018-08-04T11:06:30.265Z,26.78
2018-08-04T11:09:00.303Z,26.72
2018-08-04T11:11:30.301Z,27.20
2018-08-04T11:14:00.317Z,29.43
2018-08-04T11:16:30.368Z,26.10
2018-08-04T11:19:00.494Z,26.19
2018-08-04T11:21:30.529Z,24.76
2018-08-04T11:24:00.737Z,26.12
2018-08-04T11:26:31.099Z,24.26
2018-08-04T11:29:01.098Z,26.46
2018-08-04T11:31:31.100Z,27.08
2018-08-04T11:34:01.192Z,28.39
2018-08-04T11:36:30.940Z,26.92
2018-08-04T11:39:01.061Z,27.71
2018-08-04T11:41:31.102Z,26.90
2018-08-04T11:44:01.519Z,25.94
2018-08-04T11:46:31.556Z,27.69
2018-08-04T11:49:01.584Z,27.59
2018-08-04T11:51:31.639Z,28.08
2018-08-04T11:54:01.276Z,28.34
2018-08-04T11:56:31.366Z,29.25
2018-08-04T11:59:00.995Z,29.16
2018-08-04T12:01:30.982Z,27.15
2018-08-04T12:04:01.013Z,27.89
2018-08-04T12:06:31.022Z,28.35
2018-08-04T12:09:01.189Z,26.51
2018-08-04T12:11:31.205Z,29.40
2018-08-04T12:14:01.272Z,27.14
2018-08-04T12:16:31.276Z,27.57
2018-08-04T12:19:01.358Z,26.28
2018-08-04T12:21:31.392Z,25.83
2018-08-04T12:24:01.488Z,27.33
2018-08-04T12:26:31.559Z,27.46
2018-08-04T12:29:01.612Z,24.76
2018-08-04T12:31:31.784Z,26.14
2018-08-04T12:34:01.795Z,25.84
2018-08-04T12:36:31.424Z,25.12
2018-08-04T12:39:01.483Z,25.51
2018-08-04T12:41:31.559Z,25.31
2018-08-04T12:44:01.612Z,25.72
2018-08-04T12:46:31.660Z,24.96
2018-08-04T12:49:01.656Z,25.76
2018-08-04T12:51:31.693Z,25.08
2018-08-04T12:54:01.677Z,25.40
2018-08-04T12:56:31.768Z,26.59
2018-08-04T12:59:01.764Z,25.52
2018-08-04T13:01:32.081Z,25.38
2018-08-04T13:04:02.101Z,24.39
2018-08-04T13:06:32.079Z,27.27
2018-08-04T13:09:02.123Z,24.20
2018-08-04T13:11:32.134Z,24.79
2018-08-04T13:14:02.148Z,25.45
2018-08-04T13:16:32.150Z,24.56
2018-08-04T13:19:02.194Z,25.93
2018-08-04T13:21:32.445Z,26.35
2018-08-04T13:24:02.454Z,24.35
2018-08-04T13:26:32.524Z,24.91
2018-08-04T13:29:02.742Z,24.23
2018-08-04T13:31:32.745Z,25.43
2018-08-04T13:34:02.729Z,25.85
2018-08-04T13:36:32.745Z,24.35
2018-08-04T13:39:02.909Z,24.49
2018-08-04T13:41:32.927Z,23.36
2018-08-04T13:44:03.285Z,24.69
2018-08-04T13:46:33.383Z,24.50
2018-08-04T13:49:03.870Z,22.97
2018-08-04T13:51:34.322Z,22.28
2018-08-04T13:54:04.523Z,22.09
2018-08-04T13:56:34.551Z,21.85
2018-08-04T13:59:04.601Z,22.21
2018-08-04T14:01:34.674Z,21.75
2018-08-04T14:04:05.231Z,22.20
2018-08-04T14:06:35.456Z,21.91
2018-08-04T14:09:07.973Z,21.99
2018-08-04T14:11:38.185Z,21.98
2018-08-04T14:14:10.844Z,22.13
2018-08-04T14:16:42.217Z,21.74
2018-08-04T14:19:12.349Z,23.20
2018-08-04T14:21:42.510Z,23.38
2018-08-04T14:24:13.399Z,22.33
2018-08-04T14:26:43.549Z,23.67
2018-08-04T14:29:13.826Z,22.65
2018-08-04T14:31:43.905Z,22.31
2018-08-04T14:34:13.912Z,23.67
2018-08-04T14:36:43.976Z,23.34
2018-08-04T14:39:14.749Z,22.89
2018-08-04T14:41:44.848Z,24.67
2018-08-04T14:44:14.862Z,23.92
2018-08-04T14:46:44.948Z,24.13
2018-08-04T14:49:14.999Z,24.11
2018-08-04T14:51:45.033Z,25.44
2018-08-04T14:54:15.068Z,25.23
2018-08-04T14:56:45.089Z,24.74
2018-08-04T14:59:15.108Z,24.70
2018-08-04T15:01:45.166Z,24.34
2018-08-04T15:04:15.195Z,25.45
2018-08-04T15:06:45.201Z,25.28
2018-08-04T15:09:15.221Z,25.92
2018-08-04T15:11:45.362Z,25.20
2018-08-04T15:14:15.376Z,23.98
2018-08-04T15:16:45.450Z,24.01
2018-08-04T15:19:15.478Z,24.12
2018-08-04T15:21:45.521Z,24.05
2018-08-04T15:24:15.538Z,23.86
2018-08-04T15:26:45.656Z,23.72
2018-08-04T15:29:15.729Z,24.22
2018-08-04T15:31:46.150Z,24.00
2018-08-04T15:34:16.437Z,24.77
2018-08-04T15:36:46.512Z,26.16
2018-08-04T15:39:16.586Z,26.74
2018-08-04T15:41:46.652Z,28.92
2018-08-04T15:44:16.630Z,28.42
2018-08-04T15:46:46.742Z,28.70
2018-08-04T15:49:16.730Z,29.98
2018-08-04T15:51:46.820Z,29.79
2018-08-04T15:54:16.879Z,30.22
2018-08-04T15:56:46.918Z,30.55
2018-08-04T15:59:16.938Z,31.52
2018-08-04T16:01:47.103Z,30.05
2018-08-04T16:04:17.146Z,30.33
2018-08-04T16:06:47.154Z,30.78
2018-08-04T16:09:17.170Z,31.12
2018-08-04T16:11:47.175Z,29.92
2018-08-04T16:14:17.265Z,29.92
2018-08-04T16:16:47.308Z,29.60
2018-08-04T16:19:17.346Z,28.85
2018-08-04T16:21:50.213Z,29.14
2018-08-04T16:24:20.831Z,29.43
2018-08-04T16:26:50.858Z,30.02
2018-08-04T16:29:21.382Z,30.22
2018-08-04T16:31:51.452Z,28.96
2018-08-04T16:34:21.520Z,28.88
2018-08-04T16:36:51.609Z,29.14
2018-08-04T16:39:21.691Z,29.17
2018-08-04T16:41:51.976Z,29.34
2018-08-04T16:44:21.980Z,29.38
2018-08-04T16:46:52.002Z,29.80
2018-08-04T16:49:22.029Z,30.29
2018-08-04T16:51:52.353Z,29.57
2018-08-04T16:54:28.653Z,30.13
2018-08-04T16:56:59.471Z,29.72
2018-08-04T16:59:29.543Z,29.59
2018-08-04T17:01:59.489Z,30.82
2018-08-04T17:04:29.497Z,30.69
2018-08-04T17:06:59.456Z,30.92
2018-08-04T17:09:29.088Z,31.22
2018-08-04T17:11:59.057Z,31.15
2018-08-04T17:14:29.052Z,30.13
2018-08-04T17:16:58.985Z,30.92
2018-08-04T17:19:28.975Z,30.59
2018-08-04T17:21:58.980Z,30.20
2018-08-04T17:24:28.579Z,30.83
2018-08-04T17:26:58.561Z,30.54
2018-08-04T17:29:28.560Z,30.78
2018-08-04T17:31:58.515Z,30.78
2018-08-04T17:34:28.574Z,31.28
2018-08-04T17:36:58.600Z,30.97
2018-08-04T17:39:28.237Z,31.40
2018-08-04T17:41:58.372Z,31.49
2018-08-04T17:44:28.454Z,31.92
2018-08-04T17:46:58.562Z,31.35
2018-08-04T17:49:28.602Z,31.49
2018-08-04T17:51:58.700Z,31.85
2018-08-04T17:54:28.743Z,32.24
2018-08-04T17:56:58.886Z,32.15
2018-08-04T17:59:28.857Z,31.74
2018-08-04T18:01:58.928Z,32.76
2018-08-04T18:04:28.928Z,32.62
2018-08-04T18:06:59.012Z,32.09
2018-08-04T18:09:29.037Z,32.42
2018-08-04T18:11:59.054Z,32.45
2018-08-04T18:14:29.173Z,33.03
2018-08-04T18:16:59.171Z,33.34
2018-08-04T18:19:29.262Z,33.21
2018-08-04T18:21:59.261Z,33.99
2018-08-04T18:24:29.285Z,34.47
2018-08-04T18:26:59.250Z,34.63
2018-08-04T18:29:29.388Z,35.34
2018-08-04T18:31:59.426Z,35.29
2018-08-04T18:34:29.675Z,35.94
2018-08-04T18:36:59.727Z,35.45
2018-08-04T18:39:29.763Z,36.57
2018-08-04T18:41:59.792Z,36.45
2018-08-04T18:44:29.785Z,37.04
2018-08-04T18:46:59.909Z,38.90
2018-08-04T18:49:30.003Z,38.79
2018-08-04T18:52:00.042Z,39.36
2018-08-04T18:54:30.117Z,40.73
2018-08-04T18:57:00.169Z,40.74
2018-08-04T18:59:30.328Z,41.55
2018-08-04T19:02:00.631Z,41.06
2018-08-04T19:04:30.719Z,40.51
2018-08-04T19:07:00.756Z,40.90
2018-08-04T19:09:30.820Z,41.98
2018-08-04T19:12:00.881Z,41.71
2018-08-04T19:14:31.017Z,42.55
2018-08-04T19:17:01.080Z,42.81
2018-08-04T19:19:30.697Z,43.13
2018-08-04T19:22:00.773Z,44.11
2018-08-04T19:24:31.009Z,44.53
2018-08-04T19:27:01.049Z,44.63
2018-08-04T19:29:31.096Z,44.69
2018-08-04T19:32:01.138Z,44.31
2018-08-04T19:34:31.202Z,45.46
2018-08-04T19:37:01.275Z,45.59
2018-08-04T19:39:31.294Z,45.14
2018-08-04T19:42:01.342Z,45.23
2018-08-04T19:44:31.451Z,45.58
2018-08-04T19:47:01.746Z,46.21
2018-08-04T19:49:31.399Z,46.63
2018-08-04T19:52:01.526Z,47.35
2018-08-04T19:54:31.539Z,47.54
2018-08-04T19:57:01.683Z,48.06
2018-08-04T19:59:31.775Z,48.00
2018-08-04T20:02:01.831Z,48.17
2018-08-04T20:04:31.915Z,48.06
2018-08-04T20:07:02.273Z,48.91
2018-08-04T20:09:32.309Z,48.69
2018-08-04T20:12:02.461Z,48.83
2018-08-04T20:14:32.555Z,48.75
2018-08-04T20:17:02.643Z,49.18
2018-08-04T20:19:32.664Z,49.53
2018-08-04T20:22:02.748Z,49.17
2018-08-04T20:24:32.802Z,48.81
2018-08-04T20:27:02.856Z,49.45
2018-08-04T20:29:32.911Z,49.67
2018-08-04T20:32:02.567Z,50.46
2018-08-04T20:34:32.752Z,50.17
2018-08-04T20:37:02.891Z,50.26
2018-08-04T20:39:33.035Z,51.10
2018-08-04T20:42:03.457Z,51.49
2018-08-04T20:44:33.579Z,51.71
2018-08-04T20:47:03.659Z,51.76
2018-08-04T20:49:33.702Z,51.25
2018-08-04T20:52:03.806Z,51.23
2018-08-04T20:54:33.839Z,52.28
2018-08-04T20:57:03.879Z,51.72
2018-08-04T20:59:33.909Z,51.59
2018-08-04T21:02:05.482Z,52.03
2018-08-04T21:04:36.493Z,51.96
2018-08-04T21:07:07.259Z,52.08
2018-08-04T21:09:37.301Z,51.59
2018-08-04T21:12:07.416Z,51.39
2018-08-04T21:14:37.438Z,51.00
2018-08-04T21:17:07.727Z,51.28
2018-08-04T21:19:37.784Z,50.78
2018-08-04T21:22:08.384Z,50.79
2018-08-04T21:24:38.470Z,50.27
2018-08-04T21:27:08.470Z,50.26
2018-08-04T21:29:38.526Z,48.98
2018-08-04T21:32:08.585Z,48.50
2018-08-04T21:34:38.671Z,48.57
2018-08-04T21:37:08.734Z,48.16
2018-08-04T21:39:38.787Z,47.60
2018-08-04T21:42:08.831Z,47.40
2018-08-04T21:44:38.900Z,47.64
2018-08-04T21:47:08.887Z,47.07
2018-08-04T21:49:38.928Z,46.84
2018-08-04T21:52:09.034Z,46.42
2018-08-04T21:54:39.080Z,45.69
2018-08-04T21:57:09.098Z,45.74
2018-08-04T21:59:39.129Z,45.28
2018-08-04T22:02:09.372Z,45.00
2018-08-04T22:04:39.216Z,44.42
2018-08-04T22:07:50.421Z,44.98
2018-08-04T22:10:20.476Z,44.03
2018-08-04T22:12:50.575Z,43.86
2018-08-04T22:15:20.633Z,43.90
2018-08-04T22:17:50.666Z,43.55
2018-08-04T22:20:21.703Z,42.65
2018-08-04T22:22:51.965Z,42.66
2018-08-04T22:25:24.234Z,42.68
2018-08-04T22:27:54.414Z,42.99
2018-08-04T22:30:24.741Z,42.65
2018-08-04T22:32:54.839Z,42.26
2018-08-04T22:35:24.984Z,42.50
2018-08-04T22:37:54.965Z,42.25
2018-08-04T22:40:24.989Z,42.13
2018-08-04T22:42:55.222Z,42.68
2018-08-04T22:46:13.039Z,42.01
2018-08-04T22:48:44.559Z,42.28
2018-08-04T22:51:14.642Z,41.75
2018-08-04T22:53:44.626Z,41.33
2018-08-04T22:56:14.673Z,41.07
2018-08-04T22:58:44.663Z,41.06
2018-08-04T23:01:14.730Z,40.58
2018-08-04T23:06:14.708Z,40.34
2018-08-04T23:08:44.722Z,40.99
2018-08-04T23:11:15.003Z,40.80
2018-08-04T23:13:45.009Z,40.61
2018-08-04T23:16:15.042Z,40.63
2018-08-04T23:18:45.103Z,40.78
2018-08-04T23:21:15.162Z,40.71
2018-08-04T23:23:45.131Z,40.77
2018-08-04T23:26:15.220Z,40.87
2018-08-04T23:28:45.251Z,41.46
2018-08-04T23:31:15.321Z,41.30
2018-08-04T23:33:45.364Z,41.50
2018-08-04T23:36:15.382Z,41.35
2018-08-04T23:38:45.409Z,41.48
2018-08-04T23:41:15.466Z,42.02
2018-08-04T23:43:45.462Z,42.05
2018-08-04T23:46:15.509Z,41.62
2018-08-04T23:48:45.558Z,42.45
2018-08-04T23:51:15.581Z,43.12
2018-08-04T23:53:45.631Z,43.00
2018-08-04T23:56:15.662Z,43.09
2018-08-04T23:58:45.642Z,43.60
